Tampa/MacDill AFB, Florida
Current Conditions -  °F | °C
As of 10:58 AM on Sunday 21 Dec 2014 (Local Time) from KMCF Reporting Station
Broken Clouds Broken Clouds  
Wind Chill: 73°   Ceiling: 8500
Heat Index: 73°   Visibility: 10mi
Dew Point: 67°   Wind: 16mph
Humidity: 82%   Direction: 160°SSE
Pressure: 30.08"   Gusts: NA
Location:  27.85°N, 82.52°W
Report Text: KMCF 211558Z AUTO 16014KT 10SM BKN085 23/20 A3008 RMK AO2 SLP189 T02280196 $
Loading
Personal Weather Stations






























Interactive Weather Map New forecast layout! Learn more

10-Day Weather Forecast

Advertisements
Track Severe Weather on mobile